sensor_id;sensor_type;location;lat;lon;timestamp;P1;durP1;ratioP1;P2;durP2;ratioP2
63653;SDS011;49809;47.418;19.080;2022-08-14T00:04:41;4.57;;;3.35;;
63653;SDS011;49809;47.418;19.080;2022-08-14T00:07:47;4.57;;;3.28;;
63653;SDS011;49809;47.418;19.080;2022-08-14T00:11:02;4.07;;;3.00;;
63653;SDS011;49809;47.418;19.080;2022-08-14T00:14:07;4.43;;;3.12;;
63653;SDS011;49809;47.418;19.080;2022-08-14T00:17:18;6.55;;;3.50;;
63653;SDS011;49809;47.418;19.080;2022-08-14T00:20:24;4.57;;;3.20;;
63653;SDS011;49809;47.418;19.080;2022-08-14T00:23:44;6.28;;;3.28;;
63653;SDS011;49809;47.418;19.080;2022-08-14T00:26:55;4.72;;;3.45;;
63653;SDS011;49809;47.418;19.080;2022-08-14T00:30:07;4.82;;;3.20;;
63653;SDS011;49809;47.418;19.080;2022-08-14T00:33:20;5.30;;;3.60;;
63653;SDS011;49809;47.418;19.080;2022-08-14T00:36:43;4.55;;;3.35;;
63653;SDS011;49809;47.418;19.080;2022-08-14T00:40:12;5.75;;;3.45;;
63653;SDS011;49809;47.418;19.080;2022-08-14T00:43:37;3.78;;;3.03;;
63653;SDS011;49809;47.418;19.080;2022-08-14T00:46:46;5.47;;;3.50;;
63653;SDS011;49809;47.418;19.080;2022-08-14T00:49:54;3.72;;;2.75;;
63653;SDS011;49809;47.418;19.080;2022-08-14T00:53:19;3.85;;;2.85;;
63653;SDS011;49809;47.418;19.080;2022-08-14T00:56:28;7.03;;;3.65;;
63653;SDS011;49809;47.418;19.080;2022-08-14T00:59:33;4.97;;;3.42;;
63653;SDS011;49809;47.418;19.080;2022-08-14T01:02:39;4.47;;;3.35;;
63653;SDS011;49809;47.418;19.080;2022-08-14T01:06:08;4.68;;;2.90;;
63653;SDS011;49809;47.418;19.080;2022-08-14T01:09:20;5.75;;;3.33;;
63653;SDS011;49809;47.418;19.080;2022-08-14T01:12:27;6.15;;;3.37;;
63653;SDS011;49809;47.418;19.080;2022-08-14T01:15:32;5.20;;;3.58;;
63653;SDS011;49809;47.418;19.080;2022-08-14T01:18:54;4.70;;;3.08;;
63653;SDS011;49809;47.418;19.080;2022-08-14T01:22:17;5.40;;;3.17;;
63653;SDS011;49809;47.418;19.080;2022-08-14T01:25:20;5.50;;;3.62;;
63653;SDS011;49809;47.418;19.080;2022-08-14T01:28:24;5.25;;;3.25;;
63653;SDS011;49809;47.418;19.080;2022-08-14T01:31:52;4.47;;;3.35;;
63653;SDS011;49809;47.418;19.080;2022-08-14T01:34:55;7.12;;;3.78;;
63653;SDS011;49809;47.418;19.080;2022-08-14T01:38:21;5.30;;;3.15;;
63653;SDS011;49809;47.418;19.080;2022-08-14T01:44:34;6.80;;;3.50;;
63653;SDS011;49809;47.418;19.080;2022-08-14T01:48:03;5.12;;;3.22;;
63653;SDS011;49809;47.418;19.080;2022-08-14T01:51:09;4.62;;;3.25;;
63653;SDS011;49809;47.418;19.080;2022-08-14T01:54:22;5.22;;;3.58;;
63653;SDS011;49809;47.418;19.080;2022-08-14T01:58:05;4.72;;;3.33;;
63653;SDS011;49809;47.418;19.080;2022-08-14T02:01:31;5.28;;;3.70;;
63653;SDS011;49809;47.418;19.080;2022-08-14T02:04:37;6.55;;;3.60;;
63653;SDS011;49809;47.418;19.080;2022-08-14T02:07:59;4.93;;;3.60;;
63653;SDS011;49809;47.418;19.080;2022-08-14T02:11:19;6.60;;;2.92;;
63653;SDS011;49809;47.418;19.080;2022-08-14T02:14:25;5.65;;;3.75;;
63653;SDS011;49809;47.418;19.080;2022-08-14T02:17:33;4.68;;;3.33;;
63653;SDS011;49809;47.418;19.080;2022-08-14T02:20:37;4.72;;;3.42;;
63653;SDS011;49809;47.418;19.080;2022-08-14T02:23:44;7.00;;;3.80;;
63653;SDS011;49809;47.418;19.080;2022-08-14T02:26:55;5.35;;;3.00;;
63653;SDS011;49809;47.418;19.080;2022-08-14T02:30:24;10.70;;;3.70;;
63653;SDS011;49809;47.418;19.080;2022-08-14T02:33:52;6.12;;;3.50;;
63653;SDS011;49809;47.418;19.080;2022-08-14T02:37:00;6.82;;;3.97;;
63653;SDS011;49809;47.418;19.080;2022-08-14T02:40:14;4.60;;;3.28;;
63653;SDS011;49809;47.418;19.080;2022-08-14T02:43:20;6.05;;;3.55;;
63653;SDS011;49809;47.418;19.080;2022-08-14T02:46:24;7.47;;;4.05;;
63653;SDS011;49809;47.418;19.080;2022-08-14T02:49:34;8.30;;;3.80;;
63653;SDS011;49809;47.418;19.080;2022-08-14T02:52:38;5.97;;;3.75;;
63653;SDS011;49809;47.418;19.080;2022-08-14T02:56:01;4.10;;;3.00;;
63653;SDS011;49809;47.418;19.080;2022-08-14T02:59:25;4.05;;;3.47;;
63653;SDS011;49809;47.418;19.080;2022-08-14T03:02:54;5.75;;;3.60;;
63653;SDS011;49809;47.418;19.080;2022-08-14T03:06:02;5.05;;;3.20;;
63653;SDS011;49809;47.418;19.080;2022-08-14T03:09:07;5.97;;;3.72;;
63653;SDS011;49809;47.418;19.080;2022-08-14T03:12:13;5.65;;;3.85;;
63653;SDS011;49809;47.418;19.080;2022-08-14T03:15:32;4.68;;;3.37;;
63653;SDS011;49809;47.418;19.080;2022-08-14T03:19:01;5.20;;;3.12;;
63653;SDS011;49809;47.418;19.080;2022-08-14T03:22:08;5.80;;;3.60;;
63653;SDS011;49809;47.418;19.080;2022-08-14T03:25:33;5.60;;;3.97;;
63653;SDS011;49809;47.418;19.080;2022-08-14T03:28:42;4.90;;;3.62;;
63653;SDS011;49809;47.418;19.080;2022-08-14T03:31:49;6.35;;;4.12;;
63653;SDS011;49809;47.418;19.080;2022-08-14T03:34:55;4.28;;;3.62;;
63653;SDS011;49809;47.418;19.080;2022-08-14T03:38:05;4.85;;;3.75;;
63653;SDS011;49809;47.418;19.080;2022-08-14T03:41:37;4.82;;;3.67;;
63653;SDS011;49809;47.418;19.080;2022-08-14T03:44:42;5.12;;;3.80;;
63653;SDS011;49809;47.418;19.080;2022-08-14T03:48:10;6.70;;;3.83;;
63653;SDS011;49809;47.418;19.080;2022-08-14T03:51:39;4.37;;;3.20;;
63653;SDS011;49809;47.418;19.080;2022-08-14T03:54:45;6.78;;;3.40;;
63653;SDS011;49809;47.418;19.080;2022-08-14T03:57:56;7.72;;;4.03;;
63653;SDS011;49809;47.418;19.080;2022-08-14T04:01:02;7.65;;;3.97;;
63653;SDS011;49809;47.418;19.080;2022-08-14T04:04:08;7.85;;;4.45;;
63653;SDS011;49809;47.418;19.080;2022-08-14T04:07:13;8.43;;;3.83;;
63653;SDS011;49809;47.418;19.080;2022-08-14T04:10:31;6.20;;;3.62;;
63653;SDS011;49809;47.418;19.080;2022-08-14T04:13:59;8.63;;;3.53;;
63653;SDS011;49809;47.418;19.080;2022-08-14T04:17:03;6.80;;;3.72;;
63653;SDS011;49809;47.418;19.080;2022-08-14T04:20:31;8.07;;;3.70;;
63653;SDS011;49809;47.418;19.080;2022-08-14T04:24:16;8.23;;;4.37;;
63653;SDS011;49809;47.418;19.080;2022-08-14T04:27:20;15.00;;;4.60;;
63653;SDS011;49809;47.418;19.080;2022-08-14T04:30:25;7.68;;;4.18;;
63653;SDS011;49809;47.418;19.080;2022-08-14T04:33:34;5.80;;;3.90;;
63653;SDS011;49809;47.418;19.080;2022-08-14T04:36:38;8.43;;;4.50;;
63653;SDS011;49809;47.418;19.080;2022-08-14T04:40:01;10.50;;;4.30;;
63653;SDS011;49809;47.418;19.080;2022-08-14T04:43:22;7.40;;;3.90;;
63653;SDS011;49809;47.418;19.080;2022-08-14T04:46:40;6.35;;;3.55;;
63653;SDS011;49809;47.418;19.080;2022-08-14T04:50:05;10.40;;;4.45;;
63653;SDS011;49809;47.418;19.080;2022-08-14T04:53:08;4.68;;;3.53;;
63653;SDS011;49809;47.418;19.080;2022-08-14T04:56:29;4.60;;;3.40;;
63653;SDS011;49809;47.418;19.080;2022-08-14T04:59:36;5.60;;;3.30;;
63653;SDS011;49809;47.418;19.080;2022-08-14T05:05:54;4.97;;;3.40;;
63653;SDS011;49809;47.418;19.080;2022-08-14T05:09:00;5.97;;;4.07;;
63653;SDS011;49809;47.418;19.080;2022-08-14T05:12:03;5.82;;;3.90;;
63653;SDS011;49809;47.418;19.080;2022-08-14T05:15:20;6.35;;;3.90;;
63653;SDS011;49809;47.418;19.080;2022-08-14T05:18:25;7.72;;;4.00;;
63653;SDS011;49809;47.418;19.080;2022-08-14T05:21:54;8.77;;;4.53;;
63653;SDS011;49809;47.418;19.080;2022-08-14T05:25:40;9.82;;;4.32;;
63653;SDS011;49809;47.418;19.080;2022-08-14T05:28:44;6.97;;;4.40;;
63653;SDS011;49809;47.418;19.080;2022-08-14T05:31:47;5.82;;;3.50;;
63653;SDS011;49809;47.418;19.080;2022-08-14T05:35:08;7.45;;;4.15;;
63653;SDS011;49809;47.418;19.080;2022-08-14T05:38:19;4.97;;;3.67;;
63653;SDS011;49809;47.418;19.080;2022-08-14T05:41:37;7.37;;;4.32;;
63653;SDS011;49809;47.418;19.080;2022-08-14T05:44:55;6.75;;;4.47;;
63653;SDS011;49809;47.418;19.080;2022-08-14T05:47:59;6.03;;;3.90;;
63653;SDS011;49809;47.418;19.080;2022-08-14T05:51:03;5.95;;;4.05;;
63653;SDS011;49809;47.418;19.080;2022-08-14T05:54:11;7.00;;;4.18;;
63653;SDS011;49809;47.418;19.080;2022-08-14T05:57:25;4.50;;;3.58;;
63653;SDS011;49809;47.418;19.080;2022-08-14T06:00:37;4.28;;;3.55;;
63653;SDS011;49809;47.418;19.080;2022-08-14T06:04:04;5.53;;;3.50;;
63653;SDS011;49809;47.418;19.080;2022-08-14T06:07:07;7.07;;;4.10;;
63653;SDS011;49809;47.418;19.080;2022-08-14T06:10:12;5.93;;;4.28;;
63653;SDS011;49809;47.418;19.080;2022-08-14T06:13:20;7.07;;;3.58;;
63653;SDS011;49809;47.418;19.080;2022-08-14T06:16:32;6.85;;;3.55;;
63653;SDS011;49809;47.418;19.080;2022-08-14T06:19:37;5.45;;;3.53;;
63653;SDS011;49809;47.418;19.080;2022-08-14T06:22:41;7.32;;;4.03;;
63653;SDS011;49809;47.418;19.080;2022-08-14T06:26:06;5.05;;;3.15;;
63653;SDS011;49809;47.418;19.080;2022-08-14T06:29:11;4.77;;;3.40;;
63653;SDS011;49809;47.418;19.080;2022-08-14T06:32:37;4.43;;;3.10;;
63653;SDS011;49809;47.418;19.080;2022-08-14T06:38:49;3.92;;;2.75;;
63653;SDS011;49809;47.418;19.080;2022-08-14T06:41:58;5.55;;;3.22;;
63653;SDS011;49809;47.418;19.080;2022-08-14T06:45:02;5.15;;;3.22;;
63653;SDS011;49809;47.418;19.080;2022-08-14T06:48:13;5.40;;;3.40;;
63653;SDS011;49809;47.418;19.080;2022-08-14T06:51:18;5.00;;;3.17;;
63653;SDS011;49809;47.418;19.080;2022-08-14T06:54:24;5.28;;;2.90;;
63653;SDS011;49809;47.418;19.080;2022-08-14T06:57:36;5.72;;;3.58;;
63653;SDS011;49809;47.418;19.080;2022-08-14T07:01:09;3.53;;;2.78;;
63653;SDS011;49809;47.418;19.080;2022-08-14T07:04:52;4.70;;;2.97;;
63653;SDS011;49809;47.418;19.080;2022-08-14T07:09:04;3.65;;;2.92;;
63653;SDS011;49809;47.418;19.080;2022-08-14T07:12:35;4.55;;;3.35;;
63653;SDS011;49809;47.418;19.080;2022-08-14T07:15:53;4.40;;;2.90;;
63653;SDS011;49809;47.418;19.080;2022-08-14T07:19:00;3.90;;;2.62;;
63653;SDS011;49809;47.418;19.080;2022-08-14T07:22:04;5.00;;;3.03;;
63653;SDS011;49809;47.418;19.080;2022-08-14T07:25:22;5.00;;;3.45;;
63653;SDS011;49809;47.418;19.080;2022-08-14T07:28:37;5.12;;;3.22;;
63653;SDS011;49809;47.418;19.080;2022-08-14T07:32:00;4.47;;;3.10;;
63653;SDS011;49809;47.418;19.080;2022-08-14T07:35:04;4.72;;;3.10;;
63653;SDS011;49809;47.418;19.080;2022-08-14T07:38:17;4.40;;;3.05;;
63653;SDS011;49809;47.418;19.080;2022-08-14T07:41:47;3.95;;;2.90;;
63653;SDS011;49809;47.418;19.080;2022-08-14T07:44:54;5.68;;;3.20;;
63653;SDS011;49809;47.418;19.080;2022-08-14T07:48:01;4.53;;;3.15;;
63653;SDS011;49809;47.418;19.080;2022-08-14T07:51:07;4.32;;;2.97;;
63653;SDS011;49809;47.418;19.080;2022-08-14T07:54:20;6.47;;;3.40;;
63653;SDS011;49809;47.418;19.080;2022-08-14T07:57:46;4.22;;;2.97;;
63653;SDS011;49809;47.418;19.080;2022-08-14T08:00:57;5.18;;;3.40;;
63653;SDS011;49809;47.418;19.080;2022-08-14T08:04:15;7.07;;;3.30;;
63653;SDS011;49809;47.418;19.080;2022-08-14T08:07:46;7.72;;;3.78;;
63653;SDS011;49809;47.418;19.080;2022-08-14T08:10:58;4.43;;;3.05;;
63653;SDS011;49809;47.418;19.080;2022-08-14T08:14:26;5.78;;;3.20;;
63653;SDS011;49809;47.418;19.080;2022-08-14T08:17:35;5.00;;;3.10;;
63653;SDS011;49809;47.418;19.080;2022-08-14T08:20:56;4.10;;;3.30;;
63653;SDS011;49809;47.418;19.080;2022-08-14T08:24:05;4.70;;;3.10;;
63653;SDS011;49809;47.418;19.080;2022-08-14T08:28:01;5.03;;;3.37;;
63653;SDS011;49809;47.418;19.080;2022-08-14T08:32:10;5.95;;;3.30;;
63653;SDS011;49809;47.418;19.080;2022-08-14T08:35:36;4.82;;;3.33;;
63653;SDS011;49809;47.418;19.080;2022-08-14T08:39:41;4.68;;;3.22;;
63653;SDS011;49809;47.418;19.080;2022-08-14T08:46:56;3.92;;;3.08;;
63653;SDS011;49809;47.418;19.080;2022-08-14T08:53:37;4.25;;;3.40;;
63653;SDS011;49809;47.418;19.080;2022-08-14T08:56:47;5.05;;;3.12;;
63653;SDS011;49809;47.418;19.080;2022-08-14T08:59:59;5.20;;;3.33;;
63653;SDS011;49809;47.418;19.080;2022-08-14T09:03:26;5.68;;;3.42;;
63653;SDS011;49809;47.418;19.080;2022-08-14T09:06:41;3.40;;;3.10;;
63653;SDS011;49809;47.418;19.080;2022-08-14T09:10:13;4.30;;;3.15;;
63653;SDS011;49809;47.418;19.080;2022-08-14T09:13:50;4.40;;;3.50;;
63653;SDS011;49809;47.418;19.080;2022-08-14T09:16:55;3.53;;;2.80;;
63653;SDS011;49809;47.418;19.080;2022-08-14T09:20:21;3.42;;;3.03;;
63653;SDS011;49809;47.418;19.080;2022-08-14T09:23:40;3.40;;;2.97;;
63653;SDS011;49809;47.418;19.080;2022-08-14T09:26:59;3.50;;;3.20;;
63653;SDS011;49809;47.418;19.080;2022-08-14T09:30:04;4.13;;;3.00;;
63653;SDS011;49809;47.418;19.080;2022-08-14T09:37:29;4.70;;;3.28;;
63653;SDS011;49809;47.418;19.080;2022-08-14T09:45:12;3.58;;;2.97;;
63653;SDS011;49809;47.418;19.080;2022-08-14T09:48:30;3.50;;;3.20;;
63653;SDS011;49809;47.418;19.080;2022-08-14T09:51:37;4.15;;;3.20;;
63653;SDS011;49809;47.418;19.080;2022-08-14T09:55:00;3.83;;;3.08;;
63653;SDS011;49809;47.418;19.080;2022-08-14T09:58:12;3.85;;;3.40;;
63653;SDS011;49809;47.418;19.080;2022-08-14T10:01:48;3.42;;;3.12;;
63653;SDS011;49809;47.418;19.080;2022-08-14T10:05:01;4.93;;;3.15;;
63653;SDS011;49809;47.418;19.080;2022-08-14T10:08:15;3.85;;;3.20;;
63653;SDS011;49809;47.418;19.080;2022-08-14T10:11:58;4.10;;;3.70;;
63653;SDS011;49809;47.418;19.080;2022-08-14T10:15:17;3.85;;;3.50;;
63653;SDS011;49809;47.418;19.080;2022-08-14T10:18:44;4.22;;;3.25;;
63653;SDS011;49809;47.418;19.080;2022-08-14T10:22:11;3.10;;;2.90;;
63653;SDS011;49809;47.418;19.080;2022-08-14T10:25:37;3.78;;;3.25;;
63653;SDS011;49809;47.418;19.080;2022-08-14T10:28:48;4.05;;;2.85;;
63653;SDS011;49809;47.418;19.080;2022-08-14T10:32:14;3.47;;;3.15;;
63653;SDS011;49809;47.418;19.080;2022-08-14T10:35:21;3.50;;;2.95;;
63653;SDS011;49809;47.418;19.080;2022-08-14T10:38:35;2.97;;;2.75;;
63653;SDS011;49809;47.418;19.080;2022-08-14T10:41:43;2.70;;;2.50;;
63653;SDS011;49809;47.418;19.080;2022-08-14T10:44:55;2.85;;;2.60;;
63653;SDS011;49809;47.418;19.080;2022-08-14T10:51:10;3.25;;;2.80;;
63653;SDS011;49809;47.418;19.080;2022-08-14T10:54:27;4.32;;;3.17;;
63653;SDS011;49809;47.418;19.080;2022-08-14T10:57:47;3.53;;;2.90;;
63653;SDS011;49809;47.418;19.080;2022-08-14T11:01:00;3.30;;;3.00;;
63653;SDS011;49809;47.418;19.080;2022-08-14T11:04:23;2.70;;;2.50;;
63653;SDS011;49809;47.418;19.080;2022-08-14T11:07:31;3.28;;;2.78;;
63653;SDS011;49809;47.418;19.080;2022-08-14T11:10:53;3.05;;;2.65;;
63653;SDS011;49809;47.418;19.080;2022-08-14T11:14:01;2.92;;;2.72;;
63653;SDS011;49809;47.418;19.080;2022-08-14T11:17:10;3.47;;;3.05;;
63653;SDS011;49809;47.418;19.080;2022-08-14T11:20:32;3.37;;;3.03;;
63653;SDS011;49809;47.418;19.080;2022-08-14T11:23:35;3.92;;;3.12;;
63653;SDS011;49809;47.418;19.080;2022-08-14T11:26:49;3.37;;;3.08;;
63653;SDS011;49809;47.418;19.080;2022-08-14T11:30:02;3.62;;;3.10;;
63653;SDS011;49809;47.418;19.080;2022-08-14T11:33:52;3.72;;;2.92;;
63653;SDS011;49809;47.418;19.080;2022-08-14T11:37:11;3.62;;;2.87;;
63653;SDS011;49809;47.418;19.080;2022-08-14T11:40:39;2.95;;;2.72;;
63653;SDS011;49809;47.418;19.080;2022-08-14T11:43:46;3.00;;;2.70;;
63653;SDS011;49809;47.418;19.080;2022-08-14T11:47:22;3.03;;;2.75;;
63653;SDS011;49809;47.418;19.080;2022-08-14T11:50:29;3.00;;;2.78;;
63653;SDS011;49809;47.418;19.080;2022-08-14T11:53:56;2.90;;;2.70;;
63653;SDS011;49809;47.418;19.080;2022-08-14T11:57:32;3.05;;;2.55;;
63653;SDS011;49809;47.418;19.080;2022-08-14T12:00:45;2.50;;;2.30;;
63653;SDS011;49809;47.418;19.080;2022-08-14T12:04:10;2.92;;;2.72;;
63653;SDS011;49809;47.418;19.080;2022-08-14T12:11:26;2.60;;;2.33;;
63653;SDS011;49809;47.418;19.080;2022-08-14T12:15:10;3.10;;;2.40;;
63653;SDS011;49809;47.418;19.080;2022-08-14T12:18:15;3.40;;;2.50;;
63653;SDS011;49809;47.418;19.080;2022-08-14T12:21:23;2.78;;;2.55;;
63653;SDS011;49809;47.418;19.080;2022-08-14T12:24:45;2.72;;;2.53;;
63653;SDS011;49809;47.418;19.080;2022-08-14T12:27:56;2.83;;;2.62;;
63653;SDS011;49809;47.418;19.080;2022-08-14T12:31:12;2.90;;;2.60;;
63653;SDS011;49809;47.418;19.080;2022-08-14T12:34:30;3.55;;;3.25;;
63653;SDS011;49809;47.418;19.080;2022-08-14T12:37:57;4.40;;;2.80;;
63653;SDS011;49809;47.418;19.080;2022-08-14T12:41:09;2.67;;;2.47;;
63653;SDS011;49809;47.418;19.080;2022-08-14T12:44:42;2.80;;;2.60;;
63653;SDS011;49809;47.418;19.080;2022-08-14T12:47:58;2.70;;;2.50;;
63653;SDS011;49809;47.418;19.080;2022-08-14T12:51:22;3.78;;;2.78;;
63653;SDS011;49809;47.418;19.080;2022-08-14T12:54:41;2.80;;;2.55;;
63653;SDS011;49809;47.418;19.080;2022-08-14T12:58:07;4.40;;;2.60;;
63653;SDS011;49809;47.418;19.080;2022-08-14T13:01:36;3.20;;;2.90;;
63653;SDS011;49809;47.418;19.080;2022-08-14T13:05:04;3.17;;;2.58;;
63653;SDS011;49809;47.418;19.080;2022-08-14T13:08:09;5.80;;;3.10;;
63653;SDS011;49809;47.418;19.080;2022-08-14T13:11:45;4.28;;;3.05;;
63653;SDS011;49809;47.418;19.080;2022-08-14T13:15:17;3.05;;;2.55;;
63653;SDS011;49809;47.418;19.080;2022-08-14T13:22:37;3.28;;;2.87;;
63653;SDS011;49809;47.418;19.080;2022-08-14T13:26:05;2.78;;;2.50;;
63653;SDS011;49809;47.418;19.080;2022-08-14T13:29:41;3.08;;;2.62;;
63653;SDS011;49809;47.418;19.080;2022-08-14T13:33:12;2.55;;;2.28;;
63653;SDS011;49809;47.418;19.080;2022-08-14T13:36:53;3.10;;;2.80;;
63653;SDS011;49809;47.418;19.080;2022-08-14T13:40:19;3.03;;;2.67;;
63653;SDS011;49809;47.418;19.080;2022-08-14T13:43:42;3.40;;;2.70;;
63653;SDS011;49809;47.418;19.080;2022-08-14T13:47:19;3.42;;;2.60;;
63653;SDS011;49809;47.418;19.080;2022-08-14T13:50:39;3.17;;;2.70;;
63653;SDS011;49809;47.418;19.080;2022-08-14T13:53:57;3.58;;;2.40;;
63653;SDS011;49809;47.418;19.080;2022-08-14T13:57:26;2.92;;;2.30;;
63653;SDS011;49809;47.418;19.080;2022-08-14T14:00:35;3.42;;;2.55;;
63653;SDS011;49809;47.418;19.080;2022-08-14T14:04:05;3.20;;;2.78;;
63653;SDS011;49809;47.418;19.080;2022-08-14T14:07:26;2.40;;;2.20;;
63653;SDS011;49809;47.418;19.080;2022-08-14T14:10:34;5.62;;;2.30;;
63653;SDS011;49809;47.418;19.080;2022-08-14T14:13:44;2.92;;;2.55;;
63653;SDS011;49809;47.418;19.080;2022-08-14T14:17:01;3.22;;;2.22;;
63653;SDS011;49809;47.418;19.080;2022-08-14T14:20:09;2.40;;;2.05;;
63653;SDS011;49809;47.418;19.080;2022-08-14T14:23:47;2.80;;;2.40;;
63653;SDS011;49809;47.418;19.080;2022-08-14T14:27:22;3.10;;;2.40;;
63653;SDS011;49809;47.418;19.080;2022-08-14T14:30:46;2.30;;;2.03;;
63653;SDS011;49809;47.418;19.080;2022-08-14T14:38:14;3.17;;;2.65;;
63653;SDS011;49809;47.418;19.080;2022-08-14T14:41:42;2.72;;;2.50;;
63653;SDS011;49809;47.418;19.080;2022-08-14T14:45:19;3.12;;;2.67;;
63653;SDS011;49809;47.418;19.080;2022-08-14T14:48:50;2.83;;;2.53;;
63653;SDS011;49809;47.418;19.080;2022-08-14T14:52:10;4.07;;;2.72;;
63653;SDS011;49809;47.418;19.080;2022-08-14T14:55:37;3.08;;;2.78;;
63653;SDS011;49809;47.418;19.080;2022-08-14T14:59:14;3.67;;;2.55;;
63653;SDS011;49809;47.418;19.080;2022-08-14T15:03:06;5.18;;;2.58;;
63653;SDS011;49809;47.418;19.080;2022-08-14T17:39:25;4.20;;;2.72;;
63653;SDS011;49809;47.418;19.080;2022-08-14T17:46:03;3.67;;;2.55;;
63653;SDS011;49809;47.418;19.080;2022-08-14T17:49:12;5.07;;;2.60;;
63653;SDS011;49809;47.418;19.080;2022-08-14T17:52:19;4.28;;;2.80;;
63653;SDS011;49809;47.418;19.080;2022-08-14T17:55:41;5.68;;;2.80;;
63653;SDS011;49809;47.418;19.080;2022-08-14T17:58:59;4.05;;;2.90;;
63653;SDS011;49809;47.418;19.080;2022-08-14T18:02:08;2.97;;;2.60;;
63653;SDS011;49809;47.418;19.080;2022-08-14T18:05:18;3.58;;;2.40;;
63653;SDS011;49809;47.418;19.080;2022-08-14T18:08:42;4.10;;;2.42;;
63653;SDS011;49809;47.418;19.080;2022-08-14T18:12:20;3.95;;;2.65;;
63653;SDS011;49809;47.418;19.080;2022-08-14T18:15:34;5.35;;;2.85;;
63653;SDS011;49809;47.418;19.080;2022-08-14T18:18:38;3.72;;;2.62;;
63653;SDS011;49809;47.418;19.080;2022-08-14T18:21:47;3.10;;;2.58;;
63653;SDS011;49809;47.418;19.080;2022-08-14T18:24:59;3.33;;;2.50;;
63653;SDS011;49809;47.418;19.080;2022-08-14T18:28:07;3.80;;;2.78;;
63653;SDS011;49809;47.418;19.080;2022-08-14T18:34:33;3.47;;;2.55;;
63653;SDS011;49809;47.418;19.080;2022-08-14T18:38:13;4.57;;;3.03;;
63653;SDS011;49809;47.418;19.080;2022-08-14T18:41:30;4.35;;;2.83;;
63653;SDS011;49809;47.418;19.080;2022-08-14T18:51:33;3.97;;;3.10;;
63653;SDS011;49809;47.418;19.080;2022-08-14T18:54:48;4.30;;;2.85;;
63653;SDS011;49809;47.418;19.080;2022-08-14T19:01:22;6.05;;;2.72;;
63653;SDS011;49809;47.418;19.080;2022-08-14T19:04:36;4.00;;;2.95;;
63653;SDS011;49809;47.418;19.080;2022-08-14T19:07:42;4.03;;;2.95;;
63653;SDS011;49809;47.418;19.080;2022-08-14T19:10:50;3.70;;;2.90;;
63653;SDS011;49809;47.418;19.080;2022-08-14T19:13:56;4.22;;;2.80;;
63653;SDS011;49809;47.418;19.080;2022-08-14T19:17:01;3.15;;;2.62;;
63653;SDS011;49809;47.418;19.080;2022-08-14T19:20:06;4.80;;;3.08;;
63653;SDS011;49809;47.418;19.080;2022-08-14T19:23:14;4.80;;;2.85;;
63653;SDS011;49809;47.418;19.080;2022-08-14T19:26:21;4.95;;;2.78;;
63653;SDS011;49809;47.418;19.080;2022-08-14T19:29:38;4.45;;;3.17;;
63653;SDS011;49809;47.418;19.080;2022-08-14T19:32:42;7.25;;;2.90;;
63653;SDS011;49809;47.418;19.080;2022-08-14T19:35:53;4.43;;;2.80;;
63653;SDS011;49809;47.418;19.080;2022-08-14T19:39:02;3.53;;;2.85;;
63653;SDS011;49809;47.418;19.080;2022-08-14T19:42:09;6.70;;;3.92;;
63653;SDS011;49809;47.418;19.080;2022-08-14T19:45:27;5.03;;;3.78;;
63653;SDS011;49809;47.418;19.080;2022-08-14T19:48:36;7.93;;;3.30;;
63653;SDS011;49809;47.418;19.080;2022-08-14T19:51:40;5.05;;;2.97;;
63653;SDS011;49809;47.418;19.080;2022-08-14T19:54:49;6.32;;;2.95;;
63653;SDS011;49809;47.418;19.080;2022-08-14T19:57:54;4.03;;;2.92;;
63653;SDS011;49809;47.418;19.080;2022-08-14T20:01:02;5.15;;;3.15;;
63653;SDS011;49809;47.418;19.080;2022-08-14T20:04:10;5.00;;;3.33;;
63653;SDS011;49809;47.418;19.080;2022-08-14T20:07:39;5.65;;;3.72;;
63653;SDS011;49809;47.418;19.080;2022-08-14T20:11:01;5.15;;;3.65;;
63653;SDS011;49809;47.418;19.080;2022-08-14T20:17:32;4.80;;;3.20;;
63653;SDS011;49809;47.418;19.080;2022-08-14T20:20:42;4.82;;;2.90;;
63653;SDS011;49809;47.418;19.080;2022-08-14T20:23:46;5.20;;;3.30;;
63653;SDS011;49809;47.418;19.080;2022-08-14T20:30:22;6.37;;;3.92;;
63653;SDS011;49809;47.418;19.080;2022-08-14T20:33:38;4.50;;;3.33;;
63653;SDS011;49809;47.418;19.080;2022-08-14T20:36:59;6.35;;;3.42;;
63653;SDS011;49809;47.418;19.080;2022-08-14T20:40:18;6.10;;;3.60;;
63653;SDS011;49809;47.418;19.080;2022-08-14T20:43:30;5.93;;;3.50;;
63653;SDS011;49809;47.418;19.080;2022-08-14T20:46:57;5.10;;;3.20;;
63653;SDS011;49809;47.418;19.080;2022-08-14T20:50:12;5.03;;;3.65;;
63653;SDS011;49809;47.418;19.080;2022-08-14T20:53:33;5.45;;;3.65;;
63653;SDS011;49809;47.418;19.080;2022-08-14T20:56:40;4.80;;;3.47;;
63653;SDS011;49809;47.418;19.080;2022-08-14T20:59:45;5.68;;;3.72;;
63653;SDS011;49809;47.418;19.080;2022-08-14T21:02:58;5.82;;;3.40;;
63653;SDS011;49809;47.418;19.080;2022-08-14T21:06:25;4.50;;;3.20;;
63653;SDS011;49809;47.418;19.080;2022-08-14T21:09:30;5.60;;;3.53;;
63653;SDS011;49809;47.418;19.080;2022-08-14T21:12:51;7.10;;;3.80;;
63653;SDS011;49809;47.418;19.080;2022-08-14T21:16:06;5.50;;;3.72;;
63653;SDS011;49809;47.418;19.080;2022-08-14T21:19:22;4.67;;;3.57;;
63653;SDS011;49809;47.418;19.080;2022-08-14T21:22:41;4.47;;;3.20;;
63653;SDS011;49809;47.418;19.080;2022-08-14T21:25:50;6.90;;;3.08;;
63653;SDS011;49809;47.418;19.080;2022-08-14T21:28:52;5.97;;;3.85;;
63653;SDS011;49809;47.418;19.080;2022-08-14T21:31:55;5.62;;;3.17;;
63653;SDS011;49809;47.418;19.080;2022-08-14T21:35:00;4.90;;;3.08;;
63653;SDS011;49809;47.418;19.080;2022-08-14T21:38:17;4.78;;;3.28;;
63653;SDS011;49809;47.418;19.080;2022-08-14T21:41:21;4.82;;;3.20;;
63653;SDS011;49809;47.418;19.080;2022-08-14T21:44:38;4.95;;;3.17;;
63653;SDS011;49809;47.418;19.080;2022-08-14T21:47:48;6.55;;;3.28;;
63653;SDS011;49809;47.418;19.080;2022-08-14T21:50:51;5.10;;;3.40;;
63653;SDS011;49809;47.418;19.080;2022-08-14T21:54:15;6.43;;;2.97;;
63653;SDS011;49809;47.418;19.080;2022-08-14T21:57:33;6.18;;;3.50;;
63653;SDS011;49809;47.418;19.080;2022-08-14T22:00:54;7.85;;;3.45;;
63653;SDS011;49809;47.418;19.080;2022-08-14T22:03:58;5.85;;;3.75;;
63653;SDS011;49809;47.418;19.080;2022-08-14T22:10:21;5.12;;;3.15;;
63653;SDS011;49809;47.418;19.080;2022-08-14T22:13:25;5.78;;;3.08;;
63653;SDS011;49809;47.418;19.080;2022-08-14T22:16:35;4.78;;;3.40;;
63653;SDS011;49809;47.418;19.080;2022-08-14T22:19:51;8.65;;;3.72;;
63653;SDS011;49809;47.418;19.080;2022-08-14T22:22:57;5.20;;;3.28;;
63653;SDS011;49809;47.418;19.080;2022-08-14T22:26:04;5.57;;;3.40;;
63653;SDS011;49809;47.418;19.080;2022-08-14T22:29:10;5.28;;;3.62;;
63653;SDS011;49809;47.418;19.080;2022-08-14T22:32:15;4.85;;;3.22;;
63653;SDS011;49809;47.418;19.080;2022-08-14T22:35:27;5.37;;;3.33;;
63653;SDS011;49809;47.418;19.080;2022-08-14T22:38:45;4.87;;;3.50;;
63653;SDS011;49809;47.418;19.080;2022-08-14T22:41:51;5.05;;;3.45;;
63653;SDS011;49809;47.418;19.080;2022-08-14T22:44:59;4.18;;;3.17;;
63653;SDS011;49809;47.418;19.080;2022-08-14T22:48:06;5.37;;;3.65;;
63653;SDS011;49809;47.418;19.080;2022-08-14T22:51:12;6.50;;;3.70;;
63653;SDS011;49809;47.418;19.080;2022-08-14T22:54:19;4.62;;;3.40;;
63653;SDS011;49809;47.418;19.080;2022-08-14T22:57:34;4.93;;;3.42;;
63653;SDS011;49809;47.418;19.080;2022-08-14T23:00:46;4.43;;;3.20;;
63653;SDS011;49809;47.418;19.080;2022-08-14T23:06:56;7.30;;;3.85;;
63653;SDS011;49809;47.418;19.080;2022-08-14T23:10:06;4.47;;;3.40;;